x

Patapsco, Md (44043) Weather Station

10:40pm - Wed 27th May 2015 All times are EDT. -4 hours from GMT.

  • Wind
    11mph
  • Air Temp 73°f
  • Sea Pressure 1021.4mb
  • Patapsco, Md
  • Patapsco, Md

More Historic Weather Station data

Upgrade to MSW Pro to gain access to the past 30 days of data for over 8000 Wavebouys and Weather Stations around the globe.

Join Pro

Comparision Forecast

View Surf forecast
   
Wed 05/27 10:40pm  -   -  11
mph
1021.4mb - 73f
10:30pm  -   -  9 11 mph 1021.4mb - 73f
10:20pm  -   -  9
mph
1021.4mb - 73f
10:10pm  -   -  9 11 mph 1021.4mb - 73f
10:00pm 0.7ft  -  9 11 mph 1021.3mb 72f 73f
9:50pm  -   -  7 9 mph 1021.3mb - 73f
9:40pm  -   -  7 9 mph 1021.3mb - 73f
9:30pm  -   -  7 9 mph 1021.3mb - 73f
9:20pm  -   -  7 9 mph 1021.3mb - 73f
9:10pm  -   -  9 11 mph 1021mb - 73f
9:00pm 0.3ft  -  11 13 mph 1020.8mb 72f 73f
8:50pm  -   -  11 13 mph 1020.5mb - 73f
8:40pm  -   -  11 13 mph 1020.4mb - 73f
8:30pm  -   -  11
mph
1020.4mb - 74f
8:20pm  -   -  13 16 mph 1020.4mb - 74f
8:10pm  -   -  13 16 mph 1020.4mb - 74f
8:00pm 0.7ft  -  11 13 mph 1020.6mb 72f 74f
7:50pm  -   -  4 9 mph 1020.6mb - 73f
7:40pm  -   -  4
mph
1020.5mb - 73f
7:30pm  -   -  4
mph
1020.4mb - 73f
7:20pm  -   -  4 7 mph 1020.5mb - 73f
7:10pm  -   -  4
mph
1020.5mb - 74f
7:00pm 0.7ft  -  2 4 mph 1020.4mb 73f 75f
6:20pm  -   -  4
mph
1020.3mb - 75f
6:10pm  -   -  4
mph
1020.3mb - 75f
6:00pm 1ft 2s 4 7 mph 1020.4mb 70f 75f
5:40pm  -   -  9
mph
1020.5mb - 75f
5:30pm  -   -  11 13 mph 1020.4mb - 75f
5:20pm  -   -  11 13 mph 1020.5mb - 75f
5:10pm  -   -  13 16 mph 1020.4mb - 75f
5:00pm 1ft 2s 11 16 mph 1020.6mb 70f 76f
4:50pm  -   -  18 22 mph 1020.6mb - 76f
4:40pm  -   -  16 20 mph 1020.4mb - 76f
4:30pm  -   -  11 18 mph 1020mb - 76f
4:20pm  -   -  11 13 mph 1019.8mb - 76f
4:10pm  -   -  11 13 mph 1019.7mb - 76f
4:00pm 1ft 2s 11 13 mph 1019.7mb 71f 75f
3:50pm  -   -  9 11 mph 1019.8mb - 75f
3:40pm  -   -  9 11 mph 1020mb - 75f
3:30pm  -   -  9 11 mph 1020.1mb - 75f
3:20pm  -   -  9 11 mph 1020.3mb - 75f
3:10pm  -   -  11 13 mph 1020.2mb - 75f
3:00pm 1ft 2s 9 11 mph 1020.2mb 72f 75f
2:50pm  -   -  11 13 mph 1020.3mb - 76f
2:40pm  -   -  13 16 mph 1020.4mb - 76f
2:30pm  -   -  13 16 mph 1020.6mb - 76f
2:20pm  -   -  13
mph
1020.7mb - 76f
2:10pm  -   -  13 16 mph 1020.6mb - 75f
2:00pm 1ft 2s 11 13 mph 1020.8mb 71f 75f
1:50pm  -   -  9 11 mph 1020.9mb - 74f
1:40pm  -   -  9 11 mph 1021mb - 74f
1:30pm  -   -  7
mph
1021.1mb - 73f
1:20pm  -   -  7 9 mph 1021.4mb - 74f
1:10pm  -   -  7 9 mph 1021.4mb - 73f
1:00pm 1ft 2s 9
mph
1021.4mb 71f 73f
12:50pm  -   -  9 11 mph 1021.7mb - 73f
12:40pm  -   -  9 11 mph 1021.9mb - 73f
12:30pm  -   -  9 11 mph 1021.9mb - 73f
12:20pm  -   -  9 11 mph 1022mb - 73f
12:10pm  -   -  11 13 mph 1022mb - 73f
12:00pm 1ft 2s 11 13 mph 1022mb 70f 73f
11:50am  -   -  11 13 mph 1022mb - 72f
11:40am  -   -  11 13 mph 1021.9mb - 72f
11:30am  -   -  13 16 mph 1021.9mb - 72f
11:20am  -   -  11 13 mph 1022mb - 72f
11:10am  -   -  11 13 mph 1022.1mb - 72f
11:00am 1ft 2s 9 13 mph 1022.1mb 70f 72f
10:50am  -   -  11 13 mph 1022mb - 72f
10:40am  -   -  11 13 mph 1022mb - 71f
10:30am  -   -  13 16 mph 1021.9mb - 71f
10:20am  -   -  13 16 mph 1021.9mb - 71f
10:10am  -   -  13 16 mph 1021.9mb - 71f
10:00am 1ft 3s 13 16 mph 1022mb 70f 71f
9:50am  -   -  13 16 mph 1022.1mb - 71f
9:40am  -   -  13 16 mph 1022.1mb - 71f
9:30am  -   -  13 16 mph 1022.1mb - 71f
9:20am  -   -  13
mph
1022.1mb - 71f
9:10am  -   -  13 16 mph 1022.1mb - 71f
9:00am 1.3ft 3s 13 16 mph 1022.1mb 69f 71f
8:50am  -   -  13 16 mph 1022.2mb - 71f
8:40am  -   -  16 18 mph 1022.2mb - 71f
8:30am  -   -  16
mph
1022.2mb - 71f
8:20am  -   -  13 16 mph 1022.1mb - 71f
8:10am  -   -  16 18 mph 1022.1mb - 71f
8:00am 1ft 2s 13 16 mph 1022mb 68f 71f
7:50am  -   -  16 18 mph 1021.9mb - 71f
7:40am  -   -  16 18 mph 1021.8mb - 71f
7:30am  -   -  16
mph
1021.8mb - 71f
7:20am  -   -  13 18 mph 1021.8mb - 71f
7:10am  -   -  13 16 mph 1021.8mb - 70f
7:00am 1ft 2s 11 16 mph 1021.7mb 68f 70f
6:50am  -   -  13 16 mph 1021.6mb - 70f
6:40am  -   -  13 16 mph 1021.4mb - 70f
6:30am  -   -  13 16 mph 1021.3mb - 70f
6:20am  -   -  13 18 mph 1021.2mb - 70f
6:10am  -   -  11 13 mph 1021.3mb - 70f
6:00am 1ft 2s 11 16 mph 1021.3mb 68f 70f
5:50am  -   -  11 16 mph 1021.2mb - 70f
5:40am  -   -  13 16 mph 1021.1mb - 70f
5:30am  -   -  11 16 mph 1021.1mb - 70f
5:20am  -   -  11 13 mph 1021.2mb - 70f
5:10am  -   -  11 13 mph 1021.2mb - 70f
5:00am 1ft 2s 11 13 mph 1021.1mb 68f 70f
4:50am  -   -  11 13 mph 1021mb - 70f
4:40am  -   -  11 13 mph 1020.9mb - 70f
4:30am  -   -  13
mph
1020.9mb - 70f
4:20am  -   -  13 16 mph 1021mb - 70f
4:10am  -   -  13 16 mph 1021mb - 70f
4:00am 1.3ft 2s 13 16 mph 1021mb 69f 70f
3:50am  -   -  13 18 mph 1021.1mb - 71f
3:40am  -   -  13 16 mph 1021.2mb - 71f
3:30am  -   -  13 16 mph 1021.3mb - 71f
3:20am  -   -  13 16 mph 1021.2mb - 71f
3:10am  -   -  13 16 mph 1021.3mb - 71f
3:00am 1.3ft 2s 13 16 mph 1021.3mb 69f 71f
2:50am  -   -  13 16 mph 1021.4mb - 71f
2:40am  -   -  13 16 mph 1021.4mb - 71f
2:30am  -   -  16
mph
1021.4mb - 71f
2:20am  -   -  16 18 mph 1021.4mb - 71f
2:10am  -   -  18 20 mph 1021.4mb - 71f
2:00am 1.3ft 2s 16 20 mph 1021.4mb 69f 71f
1:50am  -   -  16 20 mph 1021.5mb - 71f
1:40am  -   -  13 16 mph 1021.5mb - 71f
1:30am  -   -  11 13 mph 1021.6mb - 71f
1:20am  -   -  13 16 mph 1021.6mb - 71f
1:00am 1.3ft 2s 13 16 mph 1021.6mb 70f 71f
12:50am  -   -  13 16 mph 1021.6mb - 71f
12:40am  -   -  11 13 mph 1021.7mb - 71f
12:30am  -   -  11 13 mph 1021.6mb - 71f
12:20am  -   -  11
mph
1021.8mb - 71f
12:10am  -   -  11
mph
1021.9mb - 71f
12:00am 1.3ft 3s 11
mph
1021.9mb 70f 71f
Tue 05/26 11:50pm  -   -  9 11 mph 1021.9mb - 71f
11:40pm  -   -  9 11 mph 1021.9mb - 71f
11:30pm  -   -  11
mph
1021.9mb - 71f
11:20pm  -   -  11 13 mph 1021.9mb - 71f
11:10pm  -   -  11
mph
1021.9mb - 71f
11:00pm 1.3ft 2s 11 13 mph 1022mb 70f 71f
10:50pm  -   -  11
mph
1022mb - 71f
10:40pm  -   -  11 13 mph 1022mb - 71f
10:30pm  -   -  11 13 mph 1021.9mb - 72f
10:20pm  -   -  11 13 mph 1022mb - 72f
10:10pm  -   -  11 13 mph 1022mb - 72f
10:00pm 1.3ft 3s 11 13 mph 1021.9mb 70f 72f
9:50pm  -   -  13 16 mph 1021.7mb - 72f
9:40pm  -   -  13 16 mph 1021.6mb - 72f
9:30pm  -   -  13 16 mph 1021.6mb - 72f
9:20pm  -   -  11 13 mph 1021.6mb - 72f
9:10pm  -   -  13 16 mph 1021.5mb - 73f
9:00pm 1.6ft 3s 13 16 mph 1021.5mb 70f 73f
8:50pm  -   -  13 16 mph 1021.5mb - 73f
8:40pm  -   -  13 16 mph 1021.3mb - 73f
8:30pm  -   -  16 18 mph 1021.2mb - 73f
8:20pm  -   -  13 16 mph 1021.3mb - 72f
8:10pm  -   -  11 13 mph 1021.2mb - 72f
8:00pm 1.3ft 3s 13 16 mph 1021.1mb 69f 73f
7:50pm  -   -  13 16 mph 1021.1mb - 73f
7:40pm  -   -  13 16 mph 1021mb - 73f
7:30pm  -   -  13
mph
1021.1mb - 73f
7:20pm  -   -  13 16 mph 1021.2mb - 73f
7:10pm  -   -  13 16 mph 1021.2mb - 73f
7:00pm 1ft 3s 11 13 mph 1021.1mb 69f 73f
6:50pm  -   -  11 13 mph 1021mb - 73f
6:40pm  -   -  11 13 mph 1021mb - 74f
6:30pm  -   -  11 13 mph 1021.1mb - 74f
6:20pm  -   -  11 13 mph 1021.2mb - 74f
6:10pm  -   -  13 16 mph 1021.1mb - 74f
6:00pm 1ft 2s 13 16 mph 1021.2mb 69f 74f
5:50pm  -   -  13 16 mph 1021.2mb - 74f
5:40pm  -   -  13 16 mph 1021.3mb - 74f
5:30pm  -   -  13
mph
1021.4mb - 74f
5:20pm  -   -  13 16 mph 1021.5mb - 73f
5:10pm  -   -  11 13 mph 1021.5mb - 73f
5:00pm 1.3ft 2s 11 13 mph 1021.6mb 68f 74f
4:50pm  -   -  13 16 mph 1021.7mb - 74f
4:40pm  -   -  16 18 mph 1021.7mb - 75f
4:30pm  -   -  16 18 mph 1021.8mb - 74f
4:20pm  -   -  13 18 mph 1021.8mb - 74f
4:10pm  -   -  16 18 mph 1021.8mb - 75f
4:00pm 1.3ft 2s 16 18 mph 1021.9mb 68f 74f
3:50pm  -   -  13 16 mph 1022mb - 74f
3:40pm  -   -  13 16 mph 1022.1mb - 74f
3:30pm  -   -  13 16 mph 1022.2mb - 74f
3:20pm  -   -  13 16 mph 1022.2mb - 74f
3:10pm  -   -  13 16 mph 1022.4mb - 74f
1:40pm  -   -  11 13 mph 1023.4mb - 72f
1:30pm  -   -  11 13 mph 1023.4mb - 72f
1:20pm  -   -  11 13 mph 1023.4mb - 72f
1:10pm  -   -  13
mph
1023.4mb - 72f
1:00pm 1ft 2s 13 16 mph 1023.4mb 69f 72f
12:50pm  -   -  11 16 mph 1023.5mb - 72f
12:40pm  -   -  13 16 mph 1023.5mb - 72f
12:30pm  -   -  13 16 mph 1023.6mb - 72f
12:20pm  -   -  13 16 mph 1023.7mb - 71f
12:10pm  -   -  13 16 mph 1023.7mb - 71f
12:00pm 1ft 2s 13 16 mph 1023.8mb 68f 71f
11:50am  -   -  13 16 mph 1023.9mb - 71f
11:40am  -   -  13 16 mph 1023.9mb - 70f
11:30am  -   -  13 16 mph 1024mb - 70f
11:20am  -   -  13 16 mph 1024mb - 70f
11:10am  -   -  13 16 mph 1024.1mb - 70f
11:00am 1ft 2s 13 16 mph 1024.1mb 68f 70f
10:50am  -   -  11 13 mph 1024.3mb - 70f
10:40am  -   -  11 13 mph 1024.3mb - 69f
10:30am  -   -  11 13 mph 1024.2mb - 69f
10:20am  -   -  11 13 mph 1024.1mb - 69f
10:10am  -   -  11 13 mph 1024.1mb - 69f
10:00am 1ft 2s 11
mph
1024.1mb 68f 69f
9:50am  -   -  11 13 mph 1024.2mb - 69f
9:40am  -   -  9 11 mph 1024.2mb - 69f
9:30am  -   -  7 9 mph 1024.3mb - 69f
9:20am  -   -  7
mph
1024.3mb - 69f
9:10am  -   -  7
mph
1024.2mb - 70f
9:00am 1ft 2s 4 7 mph 1024.3mb 67f 70f
8:50am  -   -  7 9 mph 1024.3mb - 70f
8:40am  -   -  9
mph
1024.2mb - 70f
8:30am  -   -  9 11 mph 1024.2mb - 70f
8:20am  -   -  9 11 mph 1024.2mb - 69f
8:10am  -   -  9 13 mph 1024.2mb - 69f
8:00am 1.3ft 3s 11 13 mph 1024.2mb 67f 69f
7:50am  -   -  13 16 mph 1024mb - 69f
7:40am  -   -  11 16 mph 1023.8mb - 69f
7:30am  -   -  11 13 mph 1023.9mb - 69f
7:20am  -   -  13 16 mph 1023.9mb - 69f
7:10am  -   -  13
mph
1023.8mb - 68f
7:00am 1ft 2s 13 18 mph 1023.7mb 67f 68f
6:50am  -   -  13 18 mph 1023.6mb - 68f
6:40am  -   -  13 16 mph 1023.5mb - 68f
6:30am  -   -  13 18 mph 1023.4mb - 68f
6:20am  -   -  13 18 mph 1023.4mb - 68f
6:10am  -   -  13 18 mph 1023.3mb - 68f
6:00am 1.3ft 2s 13 16 mph 1023.3mb 67f 67f
5:50am  -   -  13 16 mph 1023.3mb - 67f
5:40am  -   -  11 16 mph 1023.4mb - 67f
5:30am  -   -  11 13 mph 1023.4mb - 67f
5:20am  -   -  11 13 mph 1023.4mb - 67f
5:10am  -   -  13 16 mph 1023.4mb - 68f
5:00am 1.3ft 2s 13 16 mph 1023.3mb 67f 68f
4:50am  -   -  13 16 mph 1023.1mb - 68f
4:40am  -   -  13
mph
1023mb - 68f
4:30am  -   -  11 13 mph 1022.9mb - 68f
4:20am  -   -  13
mph
1022.9mb - 68f
4:10am  -   -  13 16 mph 1022.8mb - 68f
4:00am 1.3ft 2s 11 13 mph 1022.8mb 67f 68f
3:50am  -   -  13 16 mph 1022.8mb - 68f
3:40am  -   -  13 16 mph 1022.8mb - 68f
3:30am  -   -  13 16 mph 1022.8mb - 68f
3:20am  -   -  13 18 mph 1022.8mb - 68f
3:10am  -   -  16 18 mph 1022.8mb - 68f
3:00am 1.3ft 2s 13 16 mph 1022.9mb 67f 68f
2:50am  -   -  13 16 mph 1022.8mb - 68f
2:40am  -   -  16
mph
1022.8mb - 68f
2:30am  -   -  13 16 mph 1022.9mb - 68f
2:20am  -   -  13 16 mph 1022.9mb - 69f
2:10am  -   -  13 16 mph 1022.9mb - 69f
2:00am 1.3ft 2s 13 16 mph 1022.9mb 68f 69f
1:50am  -   -  16 18 mph 1022.8mb - 69f
1:40am  -   -  16 18 mph 1022.8mb - 69f
1:30am  -   -  16 18 mph 1022.9mb - 69f
1:20am  -   -  16 20 mph 1022.9mb - 69f
1:10am  -   -  16 20 mph 1023mb - 69f
1:00am 2ft 3s 18 20 mph 1023mb 68f 69f
12:50am  -   -  18 20 mph 1023.1mb - 69f
12:40am  -   -  18 22 mph 1023.1mb - 69f
12:30am  -   -  18 22 mph 1023.2mb - 69f
12:20am  -   -  18 22 mph 1023.3mb - 69f
12:10am  -   -  18 22 mph 1023.4mb - 69f
12:00am 2ft 3s 18 22 mph 1023.4mb 68f 70f
Mon 05/25 11:50pm  -   -  18 22 mph 1023.4mb - 70f
11:40pm  -   -  20 25 mph 1023.5mb - 70f
11:30pm  -   -  20 25 mph 1023.6mb - 70f
11:20pm  -   -  20 25 mph 1023.6mb - 70f
11:10pm  -   -  20 25 mph 1023.7mb - 70f
11:00pm 2ft 3s 20 25 mph 1023.7mb 68f 70f
10:50pm  -   -  20 25 mph 1023.8mb - 71f
10:40pm  -   -  20 25 mph 1023.8mb - 71f
10:30pm  -   -  20 25 mph 1023.7mb - 71f
10:20pm  -   -  20 22 mph 1023.6mb - 71f
10:10pm  -   -  18 22 mph 1023.6mb - 71f
10:00pm 2ft 3s 20 22 mph 1023.6mb 68f 71f
9:50pm  -   -  18 22 mph 1023.6mb - 71f
9:40pm  -   -  18 20 mph 1023.6mb - 71f
9:30pm  -   -  18 20 mph 1023.5mb - 71f
9:20pm  -   -  16 18 mph 1023.4mb - 71f
9:10pm  -   -  16 18 mph 1023.3mb - 71f
9:00pm 1.6ft 3s 16 18 mph 1023.2mb 69f 71f
8:50pm  -   -  16 18 mph 1023mb - 71f
8:40pm  -   -  16 18 mph 1023mb - 72f
8:30pm  -   -  16 20 mph 1023mb - 72f
8:20pm  -   -  16 18 mph 1023mb - 72f
8:10pm  -   -  16 18 mph 1023.1mb - 72f
8:00pm 1.6ft 3s 13 16 mph 1023.1mb 68f 72f
7:50pm  -   -  13 16 mph 1023.1mb - 72f
7:40pm  -   -  11 13 mph 1023.1mb - 72f
7:30pm  -   -  11 13 mph 1023.1mb - 72f
7:20pm  -   -  13 16 mph 1023mb - 72f
7:10pm  -   -  13 16 mph 1023mb - 72f
7:00pm 1.3ft 3s 13 16 mph 1023.1mb 68f 72f
6:50pm  -   -  11 13 mph 1023.2mb - 72f
6:40pm  -   -  13
mph
1023.1mb - 72f
6:30pm  -   -  13 16 mph 1023.1mb - 73f
6:20pm  -   -  13 16 mph 1023.1mb - 73f
6:10pm  -   -  13 16 mph 1023.2mb - 73f
6:00pm 1.3ft 3s 11 13 mph 1023.2mb 68f 72f
5:50pm  -   -  11 13 mph 1023.3mb - 72f
5:40pm  -   -  11 13 mph 1023.4mb - 72f
5:30pm  -   -  13 16 mph 1023.5mb - 72f
5:20pm  -   -  13
mph
1023.5mb - 72f
5:10pm  -   -  13 16 mph 1023.5mb - 72f
5:00pm 1.3ft 3s 13 16 mph 1023.5mb 67f 72f
4:50pm  -   -  13 16 mph 1023.5mb - 72f
4:40pm  -   -  13
mph
1023.5mb - 72f
4:30pm  -   -  13 16 mph 1023.5mb - 73f
4:20pm  -   -  16 18 mph 1023.5mb - 73f
4:10pm  -   -  16 18 mph 1023.5mb - 73f
4:00pm 1.6ft 3s 16 18 mph 1023.5mb 67f 73f
3:50pm  -   -  16 18 mph 1023.5mb - 72f
3:40pm  -   -  16 18 mph 1023.6mb - 73f
3:30pm  -   -  16 20 mph 1023.5mb - 73f
3:20pm  -   -  16 20 mph 1023.6mb - 73f
3:10pm  -   -  18 20 mph 1023.6mb - 73f
3:00pm 1.6ft 3s 18 20 mph 1023.6mb 68f 73f
2:50pm  -   -  16 20 mph 1023.7mb - 73f
2:40pm  -   -  16 20 mph 1023.8mb - 73f
2:30pm  -   -  18 20 mph 1023.8mb - 73f
2:20pm  -   -  18 20 mph 1023.9mb - 73f
2:10pm  -   -  16 20 mph 1024mb - 73f
2:00pm 1.6ft 2s 18 20 mph 1024mb 68f 73f
1:40pm  -   -  18 22 mph 1024mb - 72f
1:30pm  -   -  18 22 mph 1024.1mb - 72f
1:20pm  -   -  16 20 mph 1024.3mb - 72f
1:10pm  -   -  16 20 mph 1024.4mb - 72f
1:00pm 1.3ft 2s 16 20 mph 1024.5mb 67f 72f
12:50pm  -   -  16 18 mph 1024.7mb - 72f
12:40pm  -   -  13 18 mph 1024.8mb - 71f
12:30pm  -   -  16 18 mph 1024.8mb - 71f
12:20pm  -   -  13 16 mph 1025mb - 71f
12:10pm  -   -  13 16 mph 1025.1mb - 71f
12:00pm 1.3ft 2s 13
mph
1025.2mb 67f 70f
11:50am  -   -  13 16 mph 1025.3mb - 70f
11:40am  -   -  13
mph
1025.3mb - 70f
11:30am  -   -  13 16 mph 1025.4mb - 70f
11:20am  -   -  13 16 mph 1025.4mb - 70f
11:10am  -   -  13 16 mph 1025.5mb - 69f
11:00am 1ft 2s 13 16 mph 1025.5mb 67f 69f
10:50am  -   -  13 16 mph 1025.6mb - 69f
10:40am  -   -  13 16 mph 1025.6mb - 69f
10:30am  -   -  13 16 mph 1025.6mb - 69f
10:20am  -   -  11 13 mph 1025.6mb - 68f
10:10am  -   -  9 11 mph 1025.7mb - 68f
10:00am 1ft 2s 9 11 mph 1025.7mb 67f 68f
9:50am  -   -  7 9 mph 1025.8mb - 68f
9:40am  -   -  7
mph
1025.9mb - 69f
9:30am  -   -  7 9 mph 1025.9mb - 69f
9:20am  -   -  9
mph
1026mb - 69f
9:10am  -   -  9
mph
1026.1mb - 69f
9:00am 1ft 2s 9 11 mph 1026.1mb 67f 69f
8:40am  -   -  11 13 mph 1025.9mb - 69f
8:30am  -   -  11 13 mph 1026mb - 69f
8:20am  -   -  11 16 mph 1026mb - 68f
8:10am  -   -  11 13 mph 1025.9mb - 68f
8:00am 1ft 2s 13 18 mph 1025.7mb 66f 68f
7:50am  -   -  13 16 mph 1025.6mb - 68f
7:40am  -   -  13 20 mph 1025.4mb - 68f
7:30am  -   -  13 16 mph 1025.3mb - 67f
7:20am  -   -  13 18 mph 1025.2mb - 67f
7:10am  -   -  13 16 mph 1025.1mb - 67f
7:00am 0.7ft  -  13 16 mph 1025mb 66f 67f
6:50am  -   -  13 18 mph 1024.9mb - 67f
6:40am  -   -  11 13 mph 1024.8mb - 67f
6:30am  -   -  11 13 mph 1024.7mb - 67f
6:20am  -   -  9 11 mph 1024.7mb - 67f
6:10am  -   -  9
mph
1024.7mb - 67f
6:00am 0.3ft  -  9 11 mph 1024.7mb 66f 67f
5:50am  -   -  9
mph
1024.9mb - 67f
5:40am  -   -  7 9 mph 1024.9mb - 67f
5:30am  -   -  7
mph
1024.9mb - 67f
5:20am  -   -  7 9 mph 1025mb - 67f
5:10am  -   -  7
mph
1024.9mb - 67f
5:00am 0.3ft  -  7
mph
1024.9mb 66f 67f
4:50am  -   -  7
mph
1024.8mb - 67f
4:40am  -   -  7 9 mph 1024.8mb - 67f
4:30am  -   -  7 9 mph 1024.8mb - 67f
4:20am  -   -  9
mph
1024.8mb - 67f
4:10am  -   -  9 11 mph 1024.7mb - 67f
4:00am 0.7ft  -  9 11 mph 1024.7mb 66f 67f
3:50am  -   -  9
mph
1024.8mb - 67f
3:40am  -   -  9
mph
1024.8mb - 67f
3:30am  -   -  9
mph
1024.8mb - 67f
3:20am  -   -  9
mph
1024.7mb - 67f
3:10am  -   -  11
mph
1024.7mb - 67f
3:00am 1ft 2s 11 13 mph 1024.7mb 67f 67f
2:50am  -   -  11 13 mph 1024.6mb - 67f
2:40am  -   -  11
mph
1024.6mb - 67f
2:30am  -   -  11 13 mph 1024.6mb - 67f
2:20am  -   -  13 16 mph 1024.6mb - 67f
2:10am  -   -  13 16 mph 1024.6mb - 67f
2:00am 1ft 2s 13
mph
1024.5mb 67f 67f
1:50am  -   -  11 13 mph 1024.6mb - 67f
1:40am  -   -  11 13 mph 1024.7mb - 67f
1:30am  -   -  11 13 mph 1024.7mb - 67f
1:20am  -   -  11 13 mph 1024.8mb - 67f
1:10am  -   -  11 13 mph 1024.8mb - 67f
1:00am 1ft 2s 11 13 mph 1024.8mb 67f 67f
12:50am  -   -  11 13 mph 1025mb - 68f
12:40am  -   -  11 13 mph 1025.1mb - 68f
12:30am  -   -  11
mph
1025.2mb - 68f
12:20am  -   -  11
mph
1025.2mb - 68f
12:10am  -   -  11
mph
1025.3mb - 68f
12:00am 1ft 2s 11 13 mph 1025.3mb 67f 68f
Sun 05/24 11:50pm  -   -  11 13 mph 1025.3mb - 68f
11:40pm  -   -  11 13 mph 1025.3mb - 68f
11:30pm  -   -  11 13 mph 1025.3mb - 68f
11:20pm  -   -  11 13 mph 1025.4mb - 68f
11:10pm  -   -  11 13 mph 1025.5mb - 68f
11:00pm 1ft 2s 11 13 mph 1025.4mb 67f 68f
10:50pm  -   -  11 13 mph 1025.4mb - 69f
10:40pm  -   -  11 13 mph 1025.5mb - 69f
10:30pm  -   -  11 13 mph 1025.5mb - 69f
10:20pm  -   -  11 13 mph 1025.7mb - 69f
10:10pm  -   -  11 13 mph 1025.7mb - 69f
10:00pm 1ft 2s 13 16 mph 1025.6mb 67f 69f
9:50pm  -   -  11 16 mph 1025.5mb - 69f
9:40pm  -   -  9 11 mph 1025.4mb - 69f
9:30pm  -   -  11 13 mph 1025.3mb - 70f
9:20pm  -   -  11 13 mph 1025.3mb - 69f
9:10pm  -   -  9 11 mph 1025.2mb - 69f
9:00pm 1ft 2s 9
mph
1025.1mb 67f 69f
8:50pm  -   -  7 9 mph 1025.1mb - 69f
8:40pm  -   -  9 11 mph 1025.1mb - 69f
8:30pm  -   -  9 11 mph 1025.1mb - 70f
8:20pm  -   -  7 9 mph 1025.1mb - 70f
8:10pm  -   -  9 11 mph 1025.1mb - 70f
8:00pm 1ft 2s 9 11 mph 1025mb 68f 70f
7:50pm  -   -  9 11 mph 1025mb - 70f
7:40pm  -   -  9 11 mph 1025.1mb - 70f
7:30pm  -   -  9 11 mph 1025.1mb - 71f
7:20pm  -   -  9 11 mph 1025.1mb - 71f
7:10pm  -   -  9
mph
1025.1mb - 70f
7:00pm 1ft 2s 7 9 mph 1025mb 68f 71f
6:50pm  -   -  9
mph
1025mb - 71f
6:40pm  -   -  9
mph
1024.9mb - 71f
6:20pm  -   -  11 13 mph 1025mb - 71f
6:10pm  -   -  11 13 mph 1025mb - 71f
6:00pm 0.7ft  -  11 13 mph 1025.1mb 67f 71f
5:50pm  -   -  9 11 mph 1025.2mb - 71f
5:40pm  -   -  9 11 mph 1025.3mb - 71f
5:30pm  -   -  7 9 mph 1025.3mb - 71f
5:20pm  -   -  9
mph
1025.3mb - 71f
5:10pm  -   -  9 11 mph 1025.4mb - 71f
5:00pm 0.7ft  -  9 11 mph 1025.4mb 68f 71f
4:50pm  -   -  9 11 mph 1025.5mb - 71f
4:40pm  -   -  9
mph
1025.5mb - 71f
4:30pm  -   -  7 9 mph 1025.6mb - 70f
4:20pm  -   -  7
mph
1025.8mb - 69f
4:10pm  -   -  7 9 mph 1025.9mb - 69f
4:00pm 0.7ft  -  7 9 mph 1026mb 67f 70f
3:50pm  -   -  7 9 mph 1026.2mb - 70f
3:40pm  -   -  9
mph
1026.3mb - 70f
3:30pm  -   -  7 9 mph 1026.5mb - 69f
3:20pm  -   -  7
mph
1026.7mb - 69f
3:10pm  -   -  9
mph
1026.8mb - 69f
3:00pm 1ft 2s 9 11 mph 1026.8mb 67f 69f
2:50pm  -   -  11
mph
1027mb - 68f
2:40pm  -   -  11 13 mph 1027.1mb - 68f
2:30pm  -   -  11 13 mph 1027.2mb - 68f
2:20pm  -   -  11 13 mph 1027.3mb - 68f
2:10pm  -   -  11 13 mph 1027.4mb - 68f
2:00pm 1ft 2s 11 13 mph 1027.7mb 66f 68f
1:50pm  -   -  11
mph
1027.8mb - 68f
1:40pm  -   -  9 11 mph 1027.9mb - 68f
1:30pm  -   -  11
mph
1028mb - 67f
1:20pm  -   -  11
mph
1028mb - 67f
1:10pm  -   -  9 11 mph 1028mb - 67f
1:00pm 1ft 2s 11 13 mph 1028mb 66f 66f
12:50pm  -   -  11 13 mph 1028.1mb - 66f
12:40pm  -   -  11 13 mph 1028.1mb - 66f
12:30pm  -   -  13
mph
1028.2mb - 66f
12:20pm  -   -  13
mph
1028.3mb - 66f
12:10pm  -   -  13 16 mph 1028.3mb - 65f
12:00pm 1.3ft 2s 13 16 mph 1028.4mb 65f 65f
11:50am  -   -  13 16 mph 1028.5mb - 65f
11:40am  -   -  13 16 mph 1028.7mb - 64f
11:30am  -   -  13 16 mph 1028.8mb - 64f
11:10am  -   -  13 16 mph 1029mb - 64f
11:00am 1.3ft 2s 13 16 mph 1029mb 65f 64f
10:50am  -   -  13 16 mph 1029.1mb - 64f
10:40am  -   -  13 16 mph 1029.2mb - 64f
10:30am  -   -  13 16 mph 1029.3mb - 64f
10:20am  -   -  13 16 mph 1029.3mb - 64f
10:10am  -   -  13 16 mph 1029.4mb - 64f
10:00am 1ft 2s 11 13 mph 1029.5mb 66f 64f
9:50am  -   -  11 13 mph 1029.5mb - 64f
9:40am  -   -  11 13 mph 1029.5mb - 64f
9:30am  -   -  11 13 mph 1029.5mb - 64f
9:20am  -   -  11 13 mph 1029.6mb - 64f
9:10am  -   -  11 16 mph 1029.7mb - 64f
9:00am 1ft 2s 11 13 mph 1029.7mb 65f 64f
8:50am  -   -  11 13 mph 1029.8mb - 63f
8:40am  -   -  9 11 mph 1029.9mb - 63f
8:30am  -   -  11 13 mph 1029.9mb - 63f
8:20am  -   -  11 13 mph 1029.9mb - 62f
8:10am  -   -  11 16 mph 1029.9mb - 62f
8:00am 1ft 2s 11 13 mph 1029.8mb 65f 62f
7:50am  -   -  13 16 mph 1029.6mb - 62f
7:40am  -   -  13 16 mph 1029.6mb - 62f
7:30am  -   -  13 16 mph 1029.5mb - 62f
7:20am  -   -  13 16 mph 1029.5mb - 62f
7:10am  -   -  13 16 mph 1029.5mb - 62f
7:00am 0.7ft  -  11 13 mph 1029.6mb 65f 61f
6:50am  -   -  13 16 mph 1029.6mb - 61f
6:40am  -   -  11 13 mph 1029.7mb - 61f
6:30am  -   -  11 13 mph 1029.6mb - 61f
6:20am  -   -  9 13 mph 1029.6mb - 61f
6:10am  -   -  9 11 mph 1029.6mb - 61f
6:00am 0.3ft  -  7 9 mph 1029.6mb 65f 60f
5:50am  -   -  7 9 mph 1029.5mb - 60f
5:30am  -   -  4 7 mph 1029.4mb - 60f
5:20am  -   -  4 7 mph 1029.3mb - 60f
5:10am  -   -  4 7 mph 1029.3mb - 60f
5:00am  -   -  4 7 mph 1029.2mb 65f 60f
4:50am  -   -  4 7 mph 1029.2mb - 60f
4:40am  -   -  7
mph
1029.2mb - 61f
4:30am  -   -  7 9 mph 1029.1mb - 61f
4:20am  -   -  7 9 mph 1029.1mb - 61f
4:10am  -   -  7 9 mph 1029mb - 61f
4:00am 0.7ft  -  7 9 mph 1029mb 65f 61f
3:50am  -   -  9 11 mph 1029mb - 62f
3:40am  -   -  9 11 mph 1029.1mb - 62f
3:30am  -   -  7 13 mph 1029.1mb - 61f